sensor_id;sensor_type;location;lat;lon;timestamp;temperature;humidity
10538;DHT22;5317;49.048;8.468;2023-01-29T00:01:18;7.30;52.30
10538;DHT22;5317;49.048;8.468;2023-01-29T00:03:45;7.30;52.30
10538;DHT22;5317;49.048;8.468;2023-01-29T00:06:12;7.30;52.30
10538;DHT22;5317;49.048;8.468;2023-01-29T00:08:38;7.30;52.30
10538;DHT22;5317;49.048;8.468;2023-01-29T00:11:07;7.30;52.30
10538;DHT22;5317;49.048;8.468;2023-01-29T00:13:35;7.20;52.30
10538;DHT22;5317;49.048;8.468;2023-01-29T00:16:02;7.20;52.50
10538;DHT22;5317;49.048;8.468;2023-01-29T00:18:30;7.20;52.40
10538;DHT22;5317;49.048;8.468;2023-01-29T00:20:57;7.20;52.30
10538;DHT22;5317;49.048;8.468;2023-01-29T00:23:23;7.20;52.60
10538;DHT22;5317;49.048;8.468;2023-01-29T00:25:51;7.20;52.80
10538;DHT22;5317;49.048;8.468;2023-01-29T00:28:19;7.20;52.80
10538;DHT22;5317;49.048;8.468;2023-01-29T00:30:46;7.20;52.90
10538;DHT22;5317;49.048;8.468;2023-01-29T00:33:13;7.20;52.70
10538;DHT22;5317;49.048;8.468;2023-01-29T00:35:40;7.20;52.70
10538;DHT22;5317;49.048;8.468;2023-01-29T00:38:07;7.20;52.80
10538;DHT22;5317;49.048;8.468;2023-01-29T00:40:37;7.20;52.90
10538;DHT22;5317;49.048;8.468;2023-01-29T00:43:19;7.20;52.90
10538;DHT22;5317;49.048;8.468;2023-01-29T00:46:04;7.10;52.80
10538;DHT22;5317;49.048;8.468;2023-01-29T00:48:32;7.10;52.90
10538;DHT22;5317;49.048;8.468;2023-01-29T00:50:59;7.10;53.00
10538;DHT22;5317;49.048;8.468;2023-01-29T00:53:26;7.10;52.90
10538;DHT22;5317;49.048;8.468;2023-01-29T00:55:52;7.10;53.00
10538;DHT22;5317;49.048;8.468;2023-01-29T00:58:21;7.10;53.50
10538;DHT22;5317;49.048;8.468;2023-01-29T01:00:53;7.10;52.90
10538;DHT22;5317;49.048;8.468;2023-01-29T01:03:20;7.10;52.90
10538;DHT22;5317;49.048;8.468;2023-01-29T01:05:46;7.10;53.10
10538;DHT22;5317;49.048;8.468;2023-01-29T01:08:12;7.10;53.30
10538;DHT22;5317;49.048;8.468;2023-01-29T01:11:02;7.00;53.30
10538;DHT22;5317;49.048;8.468;2023-01-29T01:13:32;7.00;53.50
10538;DHT22;5317;49.048;8.468;2023-01-29T01:15:59;7.00;53.60
10538;DHT22;5317;49.048;8.468;2023-01-29T01:18:28;7.00;53.80
10538;DHT22;5317;49.048;8.468;2023-01-29T01:20:56;7.00;53.70
10538;DHT22;5317;49.048;8.468;2023-01-29T01:23:23;7.00;53.30
10538;DHT22;5317;49.048;8.468;2023-01-29T01:25:50;7.00;53.20
10538;DHT22;5317;49.048;8.468;2023-01-29T01:28:16;7.00;53.40
10538;DHT22;5317;49.048;8.468;2023-01-29T01:30:44;7.00;53.20
10538;DHT22;5317;49.048;8.468;2023-01-29T01:33:11;7.00;53.40
10538;DHT22;5317;49.048;8.468;2023-01-29T01:35:38;6.90;53.10
10538;DHT22;5317;49.048;8.468;2023-01-29T01:38:05;6.90;53.40
10538;DHT22;5317;49.048;8.468;2023-01-29T01:40:32;6.90;53.30
10538;DHT22;5317;49.048;8.468;2023-01-29T01:43:00;6.90;53.10
10538;DHT22;5317;49.048;8.468;2023-01-29T01:45:28;7.00;53.10
10538;DHT22;5317;49.048;8.468;2023-01-29T01:48:00;7.00;52.90
10538;DHT22;5317;49.048;8.468;2023-01-29T01:50:31;6.90;52.90
10538;DHT22;5317;49.048;8.468;2023-01-29T01:53:05;7.00;52.70
10538;DHT22;5317;49.048;8.468;2023-01-29T01:55:34;7.00;52.60
10538;DHT22;5317;49.048;8.468;2023-01-29T01:58:07;6.90;52.70
10538;DHT22;5317;49.048;8.468;2023-01-29T02:00:34;6.90;52.90
10538;DHT22;5317;49.048;8.468;2023-01-29T02:03:03;6.90;53.10
10538;DHT22;5317;49.048;8.468;2023-01-29T02:05:49;6.90;53.00
10538;DHT22;5317;49.048;8.468;2023-01-29T02:08:41;6.90;53.00
10538;DHT22;5317;49.048;8.468;2023-01-29T02:11:27;6.90;53.00
10538;DHT22;5317;49.048;8.468;2023-01-29T02:13:54;6.90;53.10
10538;DHT22;5317;49.048;8.468;2023-01-29T02:16:22;6.90;53.00
10538;DHT22;5317;49.048;8.468;2023-01-29T02:18:50;6.90;53.10
10538;DHT22;5317;49.048;8.468;2023-01-29T02:21:44;6.80;53.10
10538;DHT22;5317;49.048;8.468;2023-01-29T02:24:31;6.80;52.90
10538;DHT22;5317;49.048;8.468;2023-01-29T02:27:07;6.80;52.60
10538;DHT22;5317;49.048;8.468;2023-01-29T02:29:43;6.80;52.30
10538;DHT22;5317;49.048;8.468;2023-01-29T02:32:22;6.80;52.50
10538;DHT22;5317;49.048;8.468;2023-01-29T02:34:59;6.80;52.50
10538;DHT22;5317;49.048;8.468;2023-01-29T02:37:54;6.80;52.60
10538;DHT22;5317;49.048;8.468;2023-01-29T02:40:28;6.80;52.80
10538;DHT22;5317;49.048;8.468;2023-01-29T02:43:05;6.80;52.90
10538;DHT22;5317;49.048;8.468;2023-01-29T02:45:42;6.80;52.90
10538;DHT22;5317;49.048;8.468;2023-01-29T02:48:16;6.80;52.90
10538;DHT22;5317;49.048;8.468;2023-01-29T02:50:47;6.80;53.00
10538;DHT22;5317;49.048;8.468;2023-01-29T02:53:18;6.80;53.10
10538;DHT22;5317;49.048;8.468;2023-01-29T02:55:50;6.80;53.10
10538;DHT22;5317;49.048;8.468;2023-01-29T02:58:26;6.80;52.70
10538;DHT22;5317;49.048;8.468;2023-01-29T03:01:00;6.80;52.70
10538;DHT22;5317;49.048;8.468;2023-01-29T03:03:32;6.80;52.80
10538;DHT22;5317;49.048;8.468;2023-01-29T03:06:02;6.80;52.70
10538;DHT22;5317;49.048;8.468;2023-01-29T03:08:36;6.80;52.60
10538;DHT22;5317;49.048;8.468;2023-01-29T03:11:08;6.80;52.70
10538;DHT22;5317;49.048;8.468;2023-01-29T03:13:41;6.80;52.70
10538;DHT22;5317;49.048;8.468;2023-01-29T03:16:14;6.80;52.60
10538;DHT22;5317;49.048;8.468;2023-01-29T03:18:47;6.80;52.70
10538;DHT22;5317;49.048;8.468;2023-01-29T03:21:19;6.80;52.70
10538;DHT22;5317;49.048;8.468;2023-01-29T03:24:05;6.80;52.70
10538;DHT22;5317;49.048;8.468;2023-01-29T03:26:52;6.80;52.50
10538;DHT22;5317;49.048;8.468;2023-01-29T03:29:37;6.70;52.50
10538;DHT22;5317;49.048;8.468;2023-01-29T03:32:24;6.80;52.50
10538;DHT22;5317;49.048;8.468;2023-01-29T03:34:59;6.80;52.60
10538;DHT22;5317;49.048;8.468;2023-01-29T03:37:32;6.80;52.40
10538;DHT22;5317;49.048;8.468;2023-01-29T03:40:01;6.80;52.50
10538;DHT22;5317;49.048;8.468;2023-01-29T03:42:35;6.70;52.70
10538;DHT22;5317;49.048;8.468;2023-01-29T03:45:10;6.70;52.80
10538;DHT22;5317;49.048;8.468;2023-01-29T03:47:46;6.70;53.10
10538;DHT22;5317;49.048;8.468;2023-01-29T03:50:23;6.70;53.10
10538;DHT22;5317;49.048;8.468;2023-01-29T03:52:59;6.70;53.20
10538;DHT22;5317;49.048;8.468;2023-01-29T03:55:32;6.70;53.30
10538;DHT22;5317;49.048;8.468;2023-01-29T03:58:08;6.80;53.40
10538;DHT22;5317;49.048;8.468;2023-01-29T04:00:39;6.70;53.40
10538;DHT22;5317;49.048;8.468;2023-01-29T04:03:13;6.70;53.50
10538;DHT22;5317;49.048;8.468;2023-01-29T04:05:46;6.70;53.90
10538;DHT22;5317;49.048;8.468;2023-01-29T04:08:15;6.70;53.90
10538;DHT22;5317;49.048;8.468;2023-01-29T04:10:46;6.70;53.80
10538;DHT22;5317;49.048;8.468;2023-01-29T04:13:15;6.70;53.50
10538;DHT22;5317;49.048;8.468;2023-01-29T04:15:46;6.60;53.40
10538;DHT22;5317;49.048;8.468;2023-01-29T04:18:15;6.60;53.50
10538;DHT22;5317;49.048;8.468;2023-01-29T04:20:42;6.60;53.60
10538;DHT22;5317;49.048;8.468;2023-01-29T04:23:19;6.60;53.60
10538;DHT22;5317;49.048;8.468;2023-01-29T04:25:52;6.60;53.60
10538;DHT22;5317;49.048;8.468;2023-01-29T04:28:27;6.60;53.60
10538;DHT22;5317;49.048;8.468;2023-01-29T04:30:58;6.60;53.90
10538;DHT22;5317;49.048;8.468;2023-01-29T04:33:33;6.60;54.10
10538;DHT22;5317;49.048;8.468;2023-01-29T04:36:12;6.60;53.90
10538;DHT22;5317;49.048;8.468;2023-01-29T04:38:49;6.60;53.90
10538;DHT22;5317;49.048;8.468;2023-01-29T04:41:21;6.60;53.70
10538;DHT22;5317;49.048;8.468;2023-01-29T04:43:57;6.60;53.90
10538;DHT22;5317;49.048;8.468;2023-01-29T04:46:30;6.60;53.90
10538;DHT22;5317;49.048;8.468;2023-01-29T04:49:09;6.60;53.90
10538;DHT22;5317;49.048;8.468;2023-01-29T04:51:44;6.60;53.90
10538;DHT22;5317;49.048;8.468;2023-01-29T04:54:17;6.60;53.90
10538;DHT22;5317;49.048;8.468;2023-01-29T04:56:50;6.60;54.00
10538;DHT22;5317;49.048;8.468;2023-01-29T04:59:20;6.60;54.00
10538;DHT22;5317;49.048;8.468;2023-01-29T05:01:51;6.60;54.00
10538;DHT22;5317;49.048;8.468;2023-01-29T05:04:20;6.60;53.90
10538;DHT22;5317;49.048;8.468;2023-01-29T05:06:49;6.60;53.90
10538;DHT22;5317;49.048;8.468;2023-01-29T05:09:17;6.60;54.00
10538;DHT22;5317;49.048;8.468;2023-01-29T05:11:45;6.60;54.70
10538;DHT22;5317;49.048;8.468;2023-01-29T05:14:15;6.60;54.20
10538;DHT22;5317;49.048;8.468;2023-01-29T05:16:45;6.60;54.10
10538;DHT22;5317;49.048;8.468;2023-01-29T05:19:14;6.60;53.80
10538;DHT22;5317;49.048;8.468;2023-01-29T05:21:44;6.70;53.60
10538;DHT22;5317;49.048;8.468;2023-01-29T05:24:15;6.60;54.10
10538;DHT22;5317;49.048;8.468;2023-01-29T05:26:44;6.60;53.40
10538;DHT22;5317;49.048;8.468;2023-01-29T05:29:30;6.60;53.40
10538;DHT22;5317;49.048;8.468;2023-01-29T05:31:56;6.60;53.40
10538;DHT22;5317;49.048;8.468;2023-01-29T05:34:23;6.60;53.50
10538;DHT22;5317;49.048;8.468;2023-01-29T05:36:51;6.50;53.40
10538;DHT22;5317;49.048;8.468;2023-01-29T05:39:18;6.50;53.70
10538;DHT22;5317;49.048;8.468;2023-01-29T05:41:45;6.50;53.80
10538;DHT22;5317;49.048;8.468;2023-01-29T05:44:12;6.50;53.50
10538;DHT22;5317;49.048;8.468;2023-01-29T05:46:39;6.50;53.60
10538;DHT22;5317;49.048;8.468;2023-01-29T05:49:06;6.50;53.80
10538;DHT22;5317;49.048;8.468;2023-01-29T05:51:32;6.50;53.90
10538;DHT22;5317;49.048;8.468;2023-01-29T05:54:01;6.50;53.80
10538;DHT22;5317;49.048;8.468;2023-01-29T05:56:27;6.50;53.70
10538;DHT22;5317;49.048;8.468;2023-01-29T05:58:54;6.50;53.60
10538;DHT22;5317;49.048;8.468;2023-01-29T06:01:23;6.50;53.70
10538;DHT22;5317;49.048;8.468;2023-01-29T06:03:50;6.40;53.60
10538;DHT22;5317;49.048;8.468;2023-01-29T06:06:17;6.50;53.60
10538;DHT22;5317;49.048;8.468;2023-01-29T06:08:44;6.50;53.70
10538;DHT22;5317;49.048;8.468;2023-01-29T06:11:14;6.50;53.60
10538;DHT22;5317;49.048;8.468;2023-01-29T06:13:42;6.50;53.60
10538;DHT22;5317;49.048;8.468;2023-01-29T06:16:11;6.50;53.60
10538;DHT22;5317;49.048;8.468;2023-01-29T06:18:39;6.50;53.50
10538;DHT22;5317;49.048;8.468;2023-01-29T06:21:08;6.50;53.60
10538;DHT22;5317;49.048;8.468;2023-01-29T06:23:36;6.50;53.80
10538;DHT22;5317;49.048;8.468;2023-01-29T06:26:05;6.50;53.80
10538;DHT22;5317;49.048;8.468;2023-01-29T06:28:33;6.50;53.70
10538;DHT22;5317;49.048;8.468;2023-01-29T06:31:01;6.50;53.60
10538;DHT22;5317;49.048;8.468;2023-01-29T06:33:29;6.50;53.60
10538;DHT22;5317;49.048;8.468;2023-01-29T06:35:56;6.50;53.70
10538;DHT22;5317;49.048;8.468;2023-01-29T06:38:24;6.40;53.70
10538;DHT22;5317;49.048;8.468;2023-01-29T06:40:51;6.40;53.60
10538;DHT22;5317;49.048;8.468;2023-01-29T06:43:18;6.40;53.70
10538;DHT22;5317;49.048;8.468;2023-01-29T06:45:48;6.40;53.60
10538;DHT22;5317;49.048;8.468;2023-01-29T06:48:15;6.40;53.70
10538;DHT22;5317;49.048;8.468;2023-01-29T06:50:42;6.40;53.70
10538;DHT22;5317;49.048;8.468;2023-01-29T06:53:09;6.40;53.80
10538;DHT22;5317;49.048;8.468;2023-01-29T06:55:36;6.40;53.90
10538;DHT22;5317;49.048;8.468;2023-01-29T06:58:06;6.40;54.00
10538;DHT22;5317;49.048;8.468;2023-01-29T07:00:34;6.40;54.10
10538;DHT22;5317;49.048;8.468;2023-01-29T07:03:03;6.40;54.00
10538;DHT22;5317;49.048;8.468;2023-01-29T07:05:30;6.40;53.90
10538;DHT22;5317;49.048;8.468;2023-01-29T07:07:57;6.40;54.10
10538;DHT22;5317;49.048;8.468;2023-01-29T07:10:24;6.40;54.20
10538;DHT22;5317;49.048;8.468;2023-01-29T07:12:51;6.40;53.80
10538;DHT22;5317;49.048;8.468;2023-01-29T07:15:17;6.40;54.30
10538;DHT22;5317;49.048;8.468;2023-01-29T07:17:55;6.40;53.70
10538;DHT22;5317;49.048;8.468;2023-01-29T07:20:24;6.40;53.90
10538;DHT22;5317;49.048;8.468;2023-01-29T07:22:51;6.40;54.20
10538;DHT22;5317;49.048;8.468;2023-01-29T07:25:18;6.40;54.40
10538;DHT22;5317;49.048;8.468;2023-01-29T07:27:45;6.40;54.30
10538;DHT22;5317;49.048;8.468;2023-01-29T07:30:14;6.40;54.40
10538;DHT22;5317;49.048;8.468;2023-01-29T07:32:41;6.40;54.00
10538;DHT22;5317;49.048;8.468;2023-01-29T07:35:08;6.40;54.10
10538;DHT22;5317;49.048;8.468;2023-01-29T07:37:37;6.40;54.00
10538;DHT22;5317;49.048;8.468;2023-01-29T07:40:05;6.40;54.20
10538;DHT22;5317;49.048;8.468;2023-01-29T07:42:36;6.50;54.30
10538;DHT22;5317;49.048;8.468;2023-01-29T07:45:04;6.50;54.20
10538;DHT22;5317;49.048;8.468;2023-01-29T07:47:31;6.50;54.40
10538;DHT22;5317;49.048;8.468;2023-01-29T07:49:58;6.50;54.40
10538;DHT22;5317;49.048;8.468;2023-01-29T07:52:25;6.50;54.30
10538;DHT22;5317;49.048;8.468;2023-01-29T07:54:53;6.50;54.30
10538;DHT22;5317;49.048;8.468;2023-01-29T07:57:20;6.50;54.40
10538;DHT22;5317;49.048;8.468;2023-01-29T07:59:47;6.50;54.30
10538;DHT22;5317;49.048;8.468;2023-01-29T08:02:14;6.50;54.20
10538;DHT22;5317;49.048;8.468;2023-01-29T08:04:40;6.50;54.10
10538;DHT22;5317;49.048;8.468;2023-01-29T08:07:07;6.50;54.20
10538;DHT22;5317;49.048;8.468;2023-01-29T08:09:35;6.60;54.40
10538;DHT22;5317;49.048;8.468;2023-01-29T08:12:03;6.60;54.10
10538;DHT22;5317;49.048;8.468;2023-01-29T08:14:30;6.60;54.10
10538;DHT22;5317;49.048;8.468;2023-01-29T08:16:57;6.60;54.00
10538;DHT22;5317;49.048;8.468;2023-01-29T08:19:24;6.60;53.90
10538;DHT22;5317;49.048;8.468;2023-01-29T08:21:50;6.60;53.60
10538;DHT22;5317;49.048;8.468;2023-01-29T08:24:17;6.70;53.60
10538;DHT22;5317;49.048;8.468;2023-01-29T08:26:44;6.60;53.60
10538;DHT22;5317;49.048;8.468;2023-01-29T08:29:12;6.70;53.50
10538;DHT22;5317;49.048;8.468;2023-01-29T08:31:40;6.70;53.30
10538;DHT22;5317;49.048;8.468;2023-01-29T08:34:06;6.70;53.10
10538;DHT22;5317;49.048;8.468;2023-01-29T08:36:33;6.70;52.80
10538;DHT22;5317;49.048;8.468;2023-01-29T08:39:00;6.80;52.50
10538;DHT22;5317;49.048;8.468;2023-01-29T08:41:27;6.80;52.50
10538;DHT22;5317;49.048;8.468;2023-01-29T08:43:54;6.80;52.50
10538;DHT22;5317;49.048;8.468;2023-01-29T08:46:23;6.80;52.40
10538;DHT22;5317;49.048;8.468;2023-01-29T08:48:49;6.90;52.60
10538;DHT22;5317;49.048;8.468;2023-01-29T08:51:16;6.90;52.20
10538;DHT22;5317;49.048;8.468;2023-01-29T08:53:43;6.90;52.00
10538;DHT22;5317;49.048;8.468;2023-01-29T08:56:10;6.90;52.00
10538;DHT22;5317;49.048;8.468;2023-01-29T08:58:37;7.00;51.80
10538;DHT22;5317;49.048;8.468;2023-01-29T09:01:07;7.00;51.90
10538;DHT22;5317;49.048;8.468;2023-01-29T09:03:36;7.00;51.80
10538;DHT22;5317;49.048;8.468;2023-01-29T09:06:07;7.10;51.70
10538;DHT22;5317;49.048;8.468;2023-01-29T09:08:34;7.10;51.30
10538;DHT22;5317;49.048;8.468;2023-01-29T09:11:01;7.10;51.10
10538;DHT22;5317;49.048;8.468;2023-01-29T09:13:29;7.10;51.10
10538;DHT22;5317;49.048;8.468;2023-01-29T09:15:58;7.20;51.20
10538;DHT22;5317;49.048;8.468;2023-01-29T09:18:26;7.30;51.80
10538;DHT22;5317;49.048;8.468;2023-01-29T09:20:54;7.30;51.10
10538;DHT22;5317;49.048;8.468;2023-01-29T09:23:21;7.40;51.00
10538;DHT22;5317;49.048;8.468;2023-01-29T09:25:48;7.40;51.10
10538;DHT22;5317;49.048;8.468;2023-01-29T09:28:15;7.50;51.20
10538;DHT22;5317;49.048;8.468;2023-01-29T09:30:43;7.70;51.20
10538;DHT22;5317;49.048;8.468;2023-01-29T09:33:10;7.60;51.00
10538;DHT22;5317;49.048;8.468;2023-01-29T09:35:39;7.70;50.70
10538;DHT22;5317;49.048;8.468;2023-01-29T09:38:07;7.70;50.20
10538;DHT22;5317;49.048;8.468;2023-01-29T09:40:40;7.80;49.90
10538;DHT22;5317;49.048;8.468;2023-01-29T09:43:14;7.80;49.70
10538;DHT22;5317;49.048;8.468;2023-01-29T09:45:48;7.90;49.40
10538;DHT22;5317;49.048;8.468;2023-01-29T09:48:19;7.90;49.10
10538;DHT22;5317;49.048;8.468;2023-01-29T09:50:51;8.00;49.20
10538;DHT22;5317;49.048;8.468;2023-01-29T09:53:24;8.00;48.80
10538;DHT22;5317;49.048;8.468;2023-01-29T09:55:59;8.10;48.80
10538;DHT22;5317;49.048;8.468;2023-01-29T09:58:31;8.10;49.20
10538;DHT22;5317;49.048;8.468;2023-01-29T10:01:07;8.20;49.50
10538;DHT22;5317;49.048;8.468;2023-01-29T10:06:47;8.40;48.20
10538;DHT22;5317;49.048;8.468;2023-01-29T10:09:50;8.30;48.40
10538;DHT22;5317;49.048;8.468;2023-01-29T10:12:35;8.40;48.50
10538;DHT22;5317;49.048;8.468;2023-01-29T10:15:17;8.50;48.20
10538;DHT22;5317;49.048;8.468;2023-01-29T10:18:01;8.50;47.90
10538;DHT22;5317;49.048;8.468;2023-01-29T10:20:44;8.50;48.20
10538;DHT22;5317;49.048;8.468;2023-01-29T10:23:20;8.50;48.40
10538;DHT22;5317;49.048;8.468;2023-01-29T10:25:51;8.60;48.40
10538;DHT22;5317;49.048;8.468;2023-01-29T10:28:23;8.60;48.40
10538;DHT22;5317;49.048;8.468;2023-01-29T10:30:56;8.60;47.80
10538;DHT22;5317;49.048;8.468;2023-01-29T10:33:28;8.50;47.80
10538;DHT22;5317;49.048;8.468;2023-01-29T10:36:01;8.50;47.90
10538;DHT22;5317;49.048;8.468;2023-01-29T10:38:40;8.50;47.80
10538;DHT22;5317;49.048;8.468;2023-01-29T10:41:39;8.50;47.80
10538;DHT22;5317;49.048;8.468;2023-01-29T10:44:19;8.50;47.70
10538;DHT22;5317;49.048;8.468;2023-01-29T10:47:02;8.60;48.10
10538;DHT22;5317;49.048;8.468;2023-01-29T10:52:49;8.80;48.80
10538;DHT22;5317;49.048;8.468;2023-01-29T10:55:30;8.80;48.40
10538;DHT22;5317;49.048;8.468;2023-01-29T10:58:06;8.90;48.10
10538;DHT22;5317;49.048;8.468;2023-01-29T11:00:39;8.90;47.90
10538;DHT22;5317;49.048;8.468;2023-01-29T11:03:14;9.00;48.30
10538;DHT22;5317;49.048;8.468;2023-01-29T11:05:46;9.00;48.10
10538;DHT22;5317;49.048;8.468;2023-01-29T11:08:20;9.10;47.90
10538;DHT22;5317;49.048;8.468;2023-01-29T11:10:58;9.10;48.80
10538;DHT22;5317;49.048;8.468;2023-01-29T11:13:31;9.20;47.90
10538;DHT22;5317;49.048;8.468;2023-01-29T11:16:00;9.20;47.70
10538;DHT22;5317;49.048;8.468;2023-01-29T11:18:48;9.30;47.50
10538;DHT22;5317;49.048;8.468;2023-01-29T11:21:15;9.40;47.30
10538;DHT22;5317;49.048;8.468;2023-01-29T11:23:42;9.40;47.20
10538;DHT22;5317;49.048;8.468;2023-01-29T11:26:12;9.50;47.20
10538;DHT22;5317;49.048;8.468;2023-01-29T11:28:42;9.60;46.80
10538;DHT22;5317;49.048;8.468;2023-01-29T11:31:21;9.70;46.50
10538;DHT22;5317;49.048;8.468;2023-01-29T11:33:52;9.90;46.00
10538;DHT22;5317;49.048;8.468;2023-01-29T11:36:23;9.90;46.00
10538;DHT22;5317;49.048;8.468;2023-01-29T11:39:19;10.00;45.30
10538;DHT22;5317;49.048;8.468;2023-01-29T11:41:50;10.20;44.50
10538;DHT22;5317;49.048;8.468;2023-01-29T11:44:27;10.10;44.60
10538;DHT22;5317;49.048;8.468;2023-01-29T11:46:55;10.20;44.80
10538;DHT22;5317;49.048;8.468;2023-01-29T11:49:30;10.40;44.40
10538;DHT22;5317;49.048;8.468;2023-01-29T11:51:59;10.70;44.20
10538;DHT22;5317;49.048;8.468;2023-01-29T11:54:30;10.50;44.40
10538;DHT22;5317;49.048;8.468;2023-01-29T11:56:59;10.70;44.70
10538;DHT22;5317;49.048;8.468;2023-01-29T11:59:36;10.90;44.30
10538;DHT22;5317;49.048;8.468;2023-01-29T12:02:22;11.10;43.80
10538;DHT22;5317;49.048;8.468;2023-01-29T12:04:53;11.20;43.40
10538;DHT22;5317;49.048;8.468;2023-01-29T12:07:21;11.30;43.00
10538;DHT22;5317;49.048;8.468;2023-01-29T12:09:51;11.50;43.00
10538;DHT22;5317;49.048;8.468;2023-01-29T12:12:28;11.60;42.50
10538;DHT22;5317;49.048;8.468;2023-01-29T12:15:15;11.60;42.60
10538;DHT22;5317;49.048;8.468;2023-01-29T12:17:56;11.80;42.50
10538;DHT22;5317;49.048;8.468;2023-01-29T12:20:29;12.00;42.50
10538;DHT22;5317;49.048;8.468;2023-01-29T12:23:02;12.30;42.60
10538;DHT22;5317;49.048;8.468;2023-01-29T12:25:43;12.40;41.50
10538;DHT22;5317;49.048;8.468;2023-01-29T12:28:21;12.50;41.20
10538;DHT22;5317;49.048;8.468;2023-01-29T12:30:58;12.60;40.80
10538;DHT22;5317;49.048;8.468;2023-01-29T12:33:37;12.80;40.80
10538;DHT22;5317;49.048;8.468;2023-01-29T12:36:12;12.80;40.20
10538;DHT22;5317;49.048;8.468;2023-01-29T12:38:39;12.80;40.40
10538;DHT22;5317;49.048;8.468;2023-01-29T12:41:23;13.00;40.40
10538;DHT22;5317;49.048;8.468;2023-01-29T12:43:53;13.10;39.50
10538;DHT22;5317;49.048;8.468;2023-01-29T12:46:26;13.20;39.50
10538;DHT22;5317;49.048;8.468;2023-01-29T12:48:54;13.40;39.50
10538;DHT22;5317;49.048;8.468;2023-01-29T12:51:26;13.70;39.80
10538;DHT22;5317;49.048;8.468;2023-01-29T12:53:58;13.30;38.40
10538;DHT22;5317;49.048;8.468;2023-01-29T12:56:29;13.20;39.10
10538;DHT22;5317;49.048;8.468;2023-01-29T12:59:00;13.60;39.20
10538;DHT22;5317;49.048;8.468;2023-01-29T13:01:35;14.00;38.90
10538;DHT22;5317;49.048;8.468;2023-01-29T13:04:08;14.70;38.30
10538;DHT22;5317;49.048;8.468;2023-01-29T13:06:41;15.30;37.30
10538;DHT22;5317;49.048;8.468;2023-01-29T13:09:13;15.90;36.80
10538;DHT22;5317;49.048;8.468;2023-01-29T13:11:47;16.70;35.90
10538;DHT22;5317;49.048;8.468;2023-01-29T13:14:19;17.10;34.70
10538;DHT22;5317;49.048;8.468;2023-01-29T13:16:50;17.70;35.10
10538;DHT22;5317;49.048;8.468;2023-01-29T13:19:23;18.40;34.10
10538;DHT22;5317;49.048;8.468;2023-01-29T13:21:52;19.40;33.00
10538;DHT22;5317;49.048;8.468;2023-01-29T13:24:22;19.80;32.30
10538;DHT22;5317;49.048;8.468;2023-01-29T13:26:50;20.10;32.90
10538;DHT22;5317;49.048;8.468;2023-01-29T13:29:22;20.50;32.10
10538;DHT22;5317;49.048;8.468;2023-01-29T13:31:51;20.70;30.60
10538;DHT22;5317;49.048;8.468;2023-01-29T13:34:22;20.60;30.90
10538;DHT22;5317;49.048;8.468;2023-01-29T13:36:52;20.40;30.80
10538;DHT22;5317;49.048;8.468;2023-01-29T13:39:23;20.10;30.60
10538;DHT22;5317;49.048;8.468;2023-01-29T13:41:53;19.50;30.60
10538;DHT22;5317;49.048;8.468;2023-01-29T13:44:23;19.00;31.00
10538;DHT22;5317;49.048;8.468;2023-01-29T13:46:55;18.20;31.00
10538;DHT22;5317;49.048;8.468;2023-01-29T13:49:27;17.10;31.80
10538;DHT22;5317;49.048;8.468;2023-01-29T13:51:57;16.30;32.70
10538;DHT22;5317;49.048;8.468;2023-01-29T13:54:25;15.60;33.30
10538;DHT22;5317;49.048;8.468;2023-01-29T13:56:57;14.90;34.20
10538;DHT22;5317;49.048;8.468;2023-01-29T13:59:49;14.50;34.40
10538;DHT22;5317;49.048;8.468;2023-01-29T14:02:24;14.50;35.10
10538;DHT22;5317;49.048;8.468;2023-01-29T14:04:54;15.70;34.20
10538;DHT22;5317;49.048;8.468;2023-01-29T14:08:01;16.00;33.40
10538;DHT22;5317;49.048;8.468;2023-01-29T14:10:29;16.60;32.70
10538;DHT22;5317;49.048;8.468;2023-01-29T14:13:35;17.50;33.00
10538;DHT22;5317;49.048;8.468;2023-01-29T14:16:30;18.60;31.00
10538;DHT22;5317;49.048;8.468;2023-01-29T14:19:02;20.30;29.70
10538;DHT22;5317;49.048;8.468;2023-01-29T14:21:31;20.60;30.00
10538;DHT22;5317;49.048;8.468;2023-01-29T14:26:57;21.30;28.70
10538;DHT22;5317;49.048;8.468;2023-01-29T14:29:26;20.60;29.20
10538;DHT22;5317;49.048;8.468;2023-01-29T14:31:57;20.60;29.60
10538;DHT22;5317;49.048;8.468;2023-01-29T14:34:28;20.70;29.20
10538;DHT22;5317;49.048;8.468;2023-01-29T14:36:58;20.40;29.30
10538;DHT22;5317;49.048;8.468;2023-01-29T14:39:34;20.00;29.60
10538;DHT22;5317;49.048;8.468;2023-01-29T14:42:05;20.30;29.50
10538;DHT22;5317;49.048;8.468;2023-01-29T14:44:59;20.60;29.40
10538;DHT22;5317;49.048;8.468;2023-01-29T14:47:55;21.00;28.40
10538;DHT22;5317;49.048;8.468;2023-01-29T14:50:50;21.30;28.50
10538;DHT22;5317;49.048;8.468;2023-01-29T14:53:32;21.40;28.30
10538;DHT22;5317;49.048;8.468;2023-01-29T14:56:04;21.40;28.10
10538;DHT22;5317;49.048;8.468;2023-01-29T14:58:37;21.20;28.50
10538;DHT22;5317;49.048;8.468;2023-01-29T15:01:16;21.30;28.10
10538;DHT22;5317;49.048;8.468;2023-01-29T15:03:46;21.60;28.30
10538;DHT22;5317;49.048;8.468;2023-01-29T15:06:19;21.80;28.10
10538;DHT22;5317;49.048;8.468;2023-01-29T15:08:52;22.00;28.00
10538;DHT22;5317;49.048;8.468;2023-01-29T15:11:29;21.80;27.80
10538;DHT22;5317;49.048;8.468;2023-01-29T15:14:12;21.70;27.90
10538;DHT22;5317;49.048;8.468;2023-01-29T15:16:47;21.30;27.90
10538;DHT22;5317;49.048;8.468;2023-01-29T15:19:22;20.30;28.20
10538;DHT22;5317;49.048;8.468;2023-01-29T15:22:06;19.30;28.90
10538;DHT22;5317;49.048;8.468;2023-01-29T15:24:35;18.30;29.40
10538;DHT22;5317;49.048;8.468;2023-01-29T15:27:05;17.20;30.20
10538;DHT22;5317;49.048;8.468;2023-01-29T15:29:32;16.30;31.10
10538;DHT22;5317;49.048;8.468;2023-01-29T15:32:01;15.40;32.00
10538;DHT22;5317;49.048;8.468;2023-01-29T15:34:28;14.70;33.00
10538;DHT22;5317;49.048;8.468;2023-01-29T15:36:55;14.10;33.90
10538;DHT22;5317;49.048;8.468;2023-01-29T15:39:23;13.50;34.80
10538;DHT22;5317;49.048;8.468;2023-01-29T15:42:12;13.10;35.60
10538;DHT22;5317;49.048;8.468;2023-01-29T15:44:43;12.60;36.30
10538;DHT22;5317;49.048;8.468;2023-01-29T15:47:13;12.10;36.90
10538;DHT22;5317;49.048;8.468;2023-01-29T15:49:41;11.70;37.70
10538;DHT22;5317;49.048;8.468;2023-01-29T15:52:15;11.40;38.50
10538;DHT22;5317;49.048;8.468;2023-01-29T15:54:44;11.10;39.10
10538;DHT22;5317;49.048;8.468;2023-01-29T15:57:24;10.90;39.60
10538;DHT22;5317;49.048;8.468;2023-01-29T15:59:55;10.70;40.20
10538;DHT22;5317;49.048;8.468;2023-01-29T16:02:37;10.50;40.50
10538;DHT22;5317;49.048;8.468;2023-01-29T16:05:05;10.30;41.00
10538;DHT22;5317;49.048;8.468;2023-01-29T16:07:33;10.00;41.10
10538;DHT22;5317;49.048;8.468;2023-01-29T16:10:02;9.90;42.40
10538;DHT22;5317;49.048;8.468;2023-01-29T16:12:32;9.60;43.00
10538;DHT22;5317;49.048;8.468;2023-01-29T16:15:01;9.30;43.70
10538;DHT22;5317;49.048;8.468;2023-01-29T16:17:31;8.90;44.60
10538;DHT22;5317;49.048;8.468;2023-01-29T16:20:01;8.60;45.10
10538;DHT22;5317;49.048;8.468;2023-01-29T16:22:33;8.60;45.40
10538;DHT22;5317;49.048;8.468;2023-01-29T16:25:02;8.50;45.50
10538;DHT22;5317;49.048;8.468;2023-01-29T16:27:31;8.40;45.80
10538;DHT22;5317;49.048;8.468;2023-01-29T16:29:59;8.40;46.10
10538;DHT22;5317;49.048;8.468;2023-01-29T16:32:28;8.40;46.30
10538;DHT22;5317;49.048;8.468;2023-01-29T16:34:56;8.30;46.40
10538;DHT22;5317;49.048;8.468;2023-01-29T16:37:27;8.20;46.60